Detall de PIREP

Printer-friendly versionPDF version

[2015/01/09 08:23:00]
Flight IATA:CT2111
Pilot Number:041
Company ICAO:CAT
Aircraft Type:BE58/A
PAX:2
Departing Airport: LEST
Destination Airport: LEVC
Alternate Airport:LEBL
Online: VATSIM
Route:FORNO A33 ZMR A33 DISKO A33 INDEG A33 MAGIN A33 HORTA A33 CJN A33 PRADO A33 CENTA
Flight Level:FL120
No Slew and time accel
No pause
Crash detect
Detect pilot in Cockpit between each 30 and 45 minutes
08:23 Zero fuel Weight: 4592 Lbs, Fuel Weight: 850 Lbs
08:23 VATSIM:LEST 090800Z 00000KT 0600 R17/0400N R35/0550N FG FEW002 01/01 Q1043 TEMPO 0300 FG
08:23 VATSIM:LEVC 090800Z VRB02KT CAVOK 03/01 Q1042 NOSIG
08:23 VOICE CATALONIAN
08:25 Parking Brakes off
08:30 Take-off
08:30 Take off Weight: 5439 Lbs
08:30 Wind: 296º @ 002 Knots Heading: 163º
08:30 POS N42º 54´ 15´´ W008º 25´ 03´´
08:30 Gear Up: 101 Knots
08:30 Flaps:1 at 101 Knots
08:31 Flaps:0 at 106 Knots
08:41 TOC
08:41 Fuel Weight: 806 Lb
08:45 Wind:306º@011 Knots Heading: 121º Ground Speed: 216 Knots Altitude 12874 ft
09:00 Wind:261º@008 Knots Heading: 125º Ground Speed: 214 Knots Altitude 12805 ft
09:15 Wind:090º@004 Knots Heading: 124º Ground Speed: 206 Knots Altitude 12122 ft
09:30 Wind:268º@006 Knots Heading: 116º Ground Speed: 209 Knots Altitude 12631 ft
09:45 Wind:081º@023 Knots Heading: 112º Ground Speed: 194 Knots Altitude 12263 ft
10:00 Wind:074º@029 Knots Heading: 111º Ground Speed: 184 Knots Altitude 12874 ft
10:03 TOD
10:03 Fuel Weight: 501 Lb
10:05 TOC
10:05 Fuel Weight: 496 Lb
10:15 Wind:068º@024 Knots Heading: 114º Ground Speed: 200 Knots Altitude 12381 ft
10:18 TOD
10:18 Fuel Weight: 446 Lb
10:30 Wind:038º@017 Knots Heading: 112º Ground Speed: 184 Knots Altitude 5036 ft
10:34 Flaps:1 at 150 Knots
10:34 Gear Down: 122 Knots
10:35 Flaps:2 at 110 Knots
10:40 TouchDown:Rate -78 ft/min Speed: 84 Knots
10:40 Flaps:0 at 76 Knots
10:41 VATSIM:LEVC 091000Z VRB01KT CAVOK 11/03 Q1042 NOSIG
10:41 Land
10:41 Wind:036º@002 Knots
10:41 Heading: 111º
10:41 Flight Duration: 02:11
10:41 Landing Weight: 4986 Lbs
10:41 POS N39º 29´ 36´´ W000º 29´ 35´´
10:43 Parking brakes on
10:43 Block to Block Duration: 02:18
10:43 Final Fuel: 392 Lbls
10:43 Spent Fuel: 458 Lbls
10:43 Flight Length: 415 NM
10:43 TOD Land Length: 61 NM

Exportar CSV

Powered by Drupal - Modified by Danger4k